This is the latest recevied weather packets stored in our database for station/object KQ7A. If no packets are shown the sender has not sent any weather packets the latest 10 day(s).
| Time | Temp. | Humidity | Pressure | Rain* | Wind** | Luminosity | Snow |
|---|---|---|---|---|---|---|---|
| 1788581277 | 11.11° C | 59% | 1016.1 hPa | 0 mm | - | 0 W/m² | - |
| 1788580975 | 12.22° C | 56% | 1016 hPa | 0 mm | - | 0 W/m² | - |
| 1788580670 | 11.67° C | 57% | 1015.9 hPa | 0 mm | - | 0 W/m² | - |
| 1788580366 | 11.11° C | 61% | 1015.9 hPa | 0 mm | - | 0 W/m² | - |
| 1788580063 | 11.11° C | 59% | 1015.9 hPa | 0 mm | - | 0 W/m² | - |
| 1788579763 | 11.67° C | 59% | 1015.9 hPa | 0 mm | - | 0 W/m² | - |
| 1788579461 | 11.67° C | 59% | 1015.8 hPa | 0 mm | - | 0 W/m² | - |
| 1788579157 | 12.22° C | 58% | 1015.9 hPa | 0 mm | - | 0 W/m² | - |
| 1788578856 | 12.22° C | 57% | 1016 hPa | 0 mm | - | 0 W/m² | - |
| 1788578552 | 13.33° C | 54% | 1015.8 hPa | 0 mm | - | 0 W/m² | - |
| 1788578247 | 13.89° C | 52% | 1015.8 hPa | 0 mm | - | 0 W/m² | - |
| 1788577943 | 14.44° C | 51% | 1015.8 hPa | 0 mm | - | 0 W/m² | - |
| 1788577638 | 15° C | 49% | 1015.6 hPa | 0 mm | - | 0 W/m² | - |
| 1788577332 | 15.56° C | 48% | 1016 hPa | 0 mm | - | 0 W/m² | - |
| 1788577027 | 16.11° C | 46% | 1015.8 hPa | 0 mm | - | 0 W/m² | - |
| 1788576723 | 16.11° C | 45% | 1015.9 hPa | 0 mm | - | 0 W/m² | - |
| 1788576419 | 16.11° C | 46% | 1015.4 hPa | 0 mm | - | 0 W/m² | - |
| 1788576136 | 16.11° C | 45% | 1015.8 hPa | 0 mm | - | 0 W/m² | - |
| 1788575808 | 16.11° C | 47% | 1015.6 hPa | 0 mm | - | 0 W/m² | - |
| 1788575503 | 16.67° C | 41% | 1015.5 hPa | 0 mm | - | 0 W/m² | - |
| 1788575202 | 16.67° C | 46% | 1015.5 hPa | 0 mm | - | 1 W/m² | - |
| 1788574898 | 16.67° C | 44% | 1015.4 hPa | 0 mm | - | 3 W/m² | - |
| 1788574597 | 16.67° C | 45% | 1015.6 hPa | 0 mm | - | 6 W/m² | - |
| 1788574303 | 16.67° C | 46% | 1015.4 hPa | 0 mm | - | 7 W/m² | - |
| 1788573993 | 16.67° C | 44% | 1015.5 hPa | 0 mm | - | 11 W/m² | - |
* Rain latest hour (hover to see other rain measurements)
** Current wind speed in m/s (hover to see current wind gust speed)